createdAt,value
2023-11-21T00:00:56.411Z,3.03
2023-11-21T00:03:26.218Z,1.13
2023-11-21T00:05:54.618Z,1.43
2023-11-21T00:08:22.989Z,1.03
2023-11-21T00:10:52.466Z,0.77
2023-11-21T00:13:21.000Z,3.33
2023-11-21T00:15:49.414Z,1.13
2023-11-21T00:18:17.832Z,0.80
2023-11-21T00:20:47.645Z,0.50
2023-11-21T00:23:16.041Z,0.50
2023-11-21T00:25:45.315Z,0.73
2023-11-21T00:28:13.834Z,0.50
2023-11-21T00:30:42.238Z,0.50
2023-11-21T00:33:11.063Z,0.50
2023-11-21T00:35:39.492Z,1.23
2023-11-21T00:38:10.617Z,0.50
2023-11-21T00:40:39.028Z,0.70
2023-11-21T00:43:07.622Z,0.83
2023-11-21T00:45:37.666Z,0.50
2023-11-21T00:48:06.637Z,0.50
2023-11-21T00:50:35.098Z,0.60
2023-11-21T00:53:03.905Z,0.73
2023-11-21T00:55:33.754Z,0.53
2023-11-21T00:58:04.616Z,0.50
2023-11-21T01:00:32.975Z,0.50
2023-11-21T01:03:01.414Z,0.50
2023-11-21T01:05:29.841Z,0.80
2023-11-21T01:07:58.186Z,0.93
2023-11-21T01:10:26.563Z,0.60
2023-11-21T01:12:56.295Z,0.60
2023-11-21T01:15:27.106Z,0.77
2023-11-21T01:17:55.485Z,1.23
2023-11-21T01:20:23.962Z,0.50
2023-11-21T01:22:52.403Z,0.80
2023-11-21T01:25:22.178Z,0.57
2023-11-21T01:27:50.575Z,1.37
2023-11-21T01:30:20.660Z,0.50
2023-11-21T01:32:49.109Z,1.17
2023-11-21T01:35:17.610Z,0.50
2023-11-21T01:37:46.048Z,1.73
2023-11-21T01:40:15.700Z,0.50
2023-11-21T01:42:46.112Z,0.50
2023-11-21T01:45:14.586Z,0.93
2023-11-21T01:47:45.502Z,1.17
2023-11-21T01:50:16.981Z,0.50
2023-11-21T01:52:46.901Z,0.50
2023-11-21T01:55:26.914Z,0.53
2023-11-21T01:57:57.308Z,0.40
2023-11-21T02:00:26.506Z,0.50
2023-11-21T02:02:57.984Z,1.20
2023-11-21T02:05:27.198Z,0.63
2023-11-21T02:07:55.660Z,0.50
2023-11-21T02:10:25.237Z,0.50
2023-11-21T02:12:54.240Z,1.03
2023-11-21T02:15:22.859Z,1.33
2023-11-21T02:17:53.281Z,0.50
2023-11-21T02:20:26.174Z,0.50
2023-11-21T02:22:59.604Z,0.50
2023-11-21T02:25:29.253Z,0.40
2023-11-21T02:27:57.906Z,0.50
2023-11-21T02:30:26.380Z,0.87
2023-11-21T02:32:55.294Z,0.97
2023-11-21T02:35:23.809Z,1.37
2023-11-21T02:37:52.505Z,1.80
2023-11-21T02:40:22.689Z,0.60
2023-11-21T02:42:52.124Z,0.70
2023-11-21T02:45:22.007Z,0.47
2023-11-21T02:47:51.289Z,1.07
2023-11-21T02:50:21.499Z,0.93
2023-11-21T02:52:50.172Z,0.50
2023-11-21T02:55:18.776Z,0.70
2023-11-21T02:57:48.721Z,0.50
2023-11-21T03:00:17.507Z,0.50
2023-11-21T03:02:45.995Z,0.50
2023-11-21T03:05:14.443Z,0.70
2023-11-21T03:07:42.929Z,0.60
2023-11-21T03:10:12.381Z,0.60
2023-11-21T03:12:41.038Z,0.50
2023-11-21T03:15:11.404Z,2.00
2023-11-21T03:17:40.059Z,0.50
2023-11-21T03:20:12.141Z,0.50
2023-11-21T03:22:40.974Z,0.80
2023-11-21T03:25:12.623Z,0.50
2023-11-21T03:27:41.191Z,0.67
2023-11-21T03:30:12.282Z,0.50
2023-11-21T03:32:40.947Z,0.50
2023-11-21T03:35:09.979Z,0.70
2023-11-21T03:37:39.602Z,0.50
2023-11-21T03:40:09.737Z,0.50
2023-11-21T03:42:38.215Z,0.50
2023-11-21T03:45:07.049Z,0.50
2023-11-21T03:47:36.915Z,0.40
2023-11-21T03:50:05.674Z,0.50
2023-11-21T03:52:34.130Z,0.50
2023-11-21T03:55:02.638Z,0.50
2023-11-21T03:57:31.036Z,0.50
2023-11-21T03:59:59.492Z,1.63
2023-11-21T04:02:29.357Z,0.50
2023-11-21T04:04:59.378Z,0.50
2023-11-21T04:07:28.176Z,0.50
2023-11-21T04:09:56.744Z,0.50
2023-11-21T04:12:25.176Z,1.37
2023-11-21T04:14:55.597Z,0.40
2023-11-21T04:17:25.252Z,0.60
2023-11-21T04:19:53.758Z,0.50
2023-11-21T04:22:23.575Z,0.50
2023-11-21T04:24:51.960Z,0.50
2023-11-21T04:27:20.328Z,0.50
2023-11-21T04:29:48.642Z,0.50
2023-11-21T04:32:17.251Z,0.50
2023-11-21T04:34:45.647Z,0.63
2023-11-21T04:37:14.465Z,0.60
2023-11-21T04:39:44.272Z,0.90
2023-11-21T04:42:13.841Z,0.80
2023-11-21T04:44:42.377Z,0.50
2023-11-21T04:47:10.839Z,0.87
2023-11-21T04:49:39.339Z,2.20
2023-11-21T04:52:08.367Z,0.50
2023-11-21T04:54:36.741Z,0.60
2023-11-21T04:57:08.448Z,0.80
2023-11-21T04:59:36.860Z,0.83
2023-11-21T05:02:06.432Z,0.80
2023-11-21T05:04:35.021Z,1.53
2023-11-21T05:07:03.409Z,0.50
2023-11-21T05:09:33.510Z,1.10
2023-11-21T05:12:02.364Z,0.80
2023-11-21T05:14:32.195Z,0.90
2023-11-21T05:17:00.669Z,1.07
2023-11-21T05:19:29.872Z,1.07
2023-11-21T05:21:58.261Z,0.70
2023-11-21T05:24:26.637Z,1.93
2023-11-21T05:26:55.013Z,2.83
2023-11-21T05:29:23.442Z,1.57
2023-11-21T05:31:54.157Z,1.13
2023-11-21T05:34:25.041Z,1.40
2023-11-21T05:36:53.488Z,2.70
2023-11-21T05:39:22.856Z,1.97
2023-11-21T05:41:51.263Z,2.33
2023-11-21T05:44:19.704Z,2.10
2023-11-21T05:46:48.095Z,1.73
2023-11-21T05:49:17.940Z,2.57
2023-11-21T05:51:47.474Z,2.10
2023-11-21T05:54:15.892Z,2.37
2023-11-21T05:56:44.301Z,2.90
2023-11-21T05:59:12.885Z,2.70
2023-11-21T06:01:41.339Z,1.70
2023-11-21T06:04:10.696Z,1.50
2023-11-21T06:06:40.483Z,1.30
2023-11-21T06:09:10.105Z,1.20
2023-11-21T06:11:38.596Z,1.20
2023-11-21T06:14:09.269Z,1.13
2023-11-21T06:16:37.920Z,1.60
2023-11-21T06:19:06.609Z,1.57
2023-11-21T06:21:35.132Z,2.13
2023-11-21T06:24:04.941Z,1.23
2023-11-21T06:26:34.277Z,1.80
2023-11-21T06:29:04.122Z,1.30
2023-11-21T06:31:33.931Z,0.87
2023-11-21T06:34:02.428Z,1.47
2023-11-21T06:36:30.930Z,1.90
2023-11-21T06:38:59.301Z,2.20
2023-11-21T06:41:29.154Z,1.67
2023-11-21T06:43:59.343Z,1.43
2023-11-21T06:46:27.979Z,1.87
2023-11-21T06:48:56.936Z,2.20
2023-11-21T06:51:25.379Z,2.77
2023-11-21T06:53:53.806Z,0.70
2023-11-21T06:56:22.420Z,2.47
2023-11-21T06:58:55.012Z,2.10
2023-11-21T07:01:23.491Z,2.43
2023-11-21T07:03:52.029Z,2.33
2023-11-21T07:06:20.476Z,2.03
2023-11-21T07:08:49.441Z,2.37
2023-11-21T07:11:17.985Z,4.43
2023-11-21T07:13:47.168Z,3.07
2023-11-21T07:16:17.410Z,2.87
2023-11-21T07:18:45.864Z,1.93
2023-11-21T07:21:14.278Z,1.60
2023-11-21T07:23:42.674Z,2.40
2023-11-21T07:26:11.914Z,2.63
2023-11-21T07:28:40.426Z,3.53
2023-11-21T07:31:09.019Z,3.77
2023-11-21T07:33:40.202Z,2.53
2023-11-21T07:36:09.208Z,2.20
2023-11-21T07:38:37.610Z,1.87
2023-11-21T07:41:11.093Z,2.30
2023-11-21T07:43:41.881Z,2.40
2023-11-21T07:46:10.915Z,3.63
2023-11-21T07:48:43.970Z,2.20
2023-11-21T07:51:14.369Z,2.43
2023-11-21T07:53:42.724Z,2.47
2023-11-21T07:56:11.719Z,3.67
2023-11-21T07:58:40.207Z,2.57
2023-11-21T08:01:09.344Z,2.37
2023-11-21T08:03:38.004Z,3.30
2023-11-21T08:06:08.389Z,1.90
2023-11-21T08:08:37.129Z,2.37
2023-11-21T08:11:06.375Z,2.50
2023-11-21T08:13:35.139Z,3.20
2023-11-21T08:16:05.781Z,3.03
2023-11-21T08:18:35.295Z,2.37
2023-11-21T08:21:04.302Z,1.83
2023-11-21T08:23:35.459Z,2.70
2023-11-21T08:26:06.611Z,2.00
2023-11-21T08:28:35.416Z,1.83
2023-11-21T08:31:04.036Z,3.60
2023-11-21T08:33:32.587Z,2.53
2023-11-21T08:36:02.705Z,2.73
2023-11-21T08:38:31.151Z,1.77
2023-11-21T08:41:01.394Z,2.03
2023-11-21T08:43:30.296Z,1.87
2023-11-21T08:45:58.953Z,2.87
2023-11-21T08:48:29.651Z,1.30
2023-11-21T08:50:58.883Z,2.77
2023-11-21T08:53:27.959Z,1.57
2023-11-21T08:55:56.446Z,2.37
2023-11-21T08:58:26.562Z,1.90
2023-11-21T09:00:55.197Z,1.40
2023-11-21T09:03:23.869Z,1.73
2023-11-21T09:05:52.527Z,2.37
2023-11-21T09:08:21.080Z,3.00
2023-11-21T09:10:51.740Z,1.77
2023-11-21T09:13:21.728Z,1.87
2023-11-21T09:15:55.367Z,2.37
2023-11-21T09:18:24.023Z,1.90
2023-11-21T09:20:52.724Z,2.93
2023-11-21T09:23:21.980Z,1.57
2023-11-21T09:25:51.537Z,1.90
2023-11-21T09:28:20.323Z,2.00
2023-11-21T09:30:50.339Z,2.80
2023-11-21T09:33:20.202Z,1.90
2023-11-21T09:35:52.991Z,2.10
2023-11-21T09:38:21.784Z,2.47
2023-11-21T09:40:51.016Z,2.43
2023-11-21T09:43:20.336Z,3.20
2023-11-21T09:45:49.661Z,2.60
2023-11-21T09:48:18.293Z,3.00
2023-11-21T09:50:51.878Z,2.33
2023-11-21T09:53:22.897Z,1.83
2023-11-21T09:55:53.708Z,2.40
2023-11-21T09:58:28.273Z,2.63
2023-11-21T10:00:58.774Z,1.83
2023-11-21T10:03:28.019Z,2.83
2023-11-21T10:06:00.737Z,3.03
2023-11-21T10:08:42.557Z,2.30
2023-11-21T10:11:22.969Z,2.50
2023-11-21T10:13:55.170Z,3.53
2023-11-21T10:16:24.941Z,2.37
2023-11-21T10:19:06.168Z,2.93
2023-11-21T10:21:41.391Z,3.17
2023-11-21T10:24:11.380Z,4.03
2023-11-21T10:26:47.888Z,2.20
2023-11-21T10:29:23.129Z,5.07
2023-11-21T10:31:53.029Z,2.30
2023-11-21T10:34:22.605Z,1.80
2023-11-21T10:36:52.632Z,2.67
2023-11-21T10:39:24.981Z,2.47
2023-11-21T10:41:53.669Z,2.57
2023-11-21T10:44:23.104Z,3.07
2023-11-21T10:46:52.991Z,4.57
2023-11-21T10:49:21.561Z,3.53
2023-11-21T10:51:52.339Z,2.97
2023-11-21T10:54:23.043Z,3.53
2023-11-21T10:56:53.165Z,3.20
2023-11-21T10:59:26.216Z,3.17
2023-11-21T11:01:55.180Z,2.20
2023-11-21T11:04:24.399Z,3.83
2023-11-21T11:06:57.572Z,2.33
2023-11-21T11:09:27.482Z,4.47
2023-11-21T11:11:56.334Z,3.93
2023-11-21T11:14:27.213Z,4.47
2023-11-21T11:16:57.583Z,3.20
2023-11-21T11:19:26.181Z,3.23
2023-11-21T11:22:05.702Z,4.20
2023-11-21T11:24:44.307Z,3.53
2023-11-21T11:27:23.017Z,3.67
2023-11-21T11:30:08.917Z,3.60
2023-11-21T11:32:45.709Z,4.17
2023-11-21T11:35:19.948Z,2.97
2023-11-21T11:37:48.514Z,3.57
2023-11-21T11:40:22.227Z,2.97
2023-11-21T11:43:01.152Z,3.30
2023-11-21T11:45:35.589Z,2.50
2023-11-21T11:48:08.721Z,3.33
2023-11-21T11:50:37.972Z,3.20
2023-11-21T11:53:19.322Z,4.07
2023-11-21T11:55:49.452Z,3.07
2023-11-21T11:58:22.440Z,3.03
2023-11-21T12:00:59.112Z,4.53
2023-11-21T12:03:27.833Z,2.30
2023-11-21T12:05:59.430Z,3.57
2023-11-21T12:08:33.957Z,3.23
2023-11-21T12:11:04.442Z,3.90
2023-11-21T12:13:33.423Z,4.70
2023-11-21T12:16:04.659Z,4.03
2023-11-21T12:18:33.173Z,2.00
2023-11-21T12:21:01.799Z,3.73
2023-11-21T12:23:33.550Z,3.90
2023-11-21T12:26:02.475Z,2.77
2023-11-21T12:28:36.218Z,2.30
2023-11-21T12:31:14.816Z,2.57
2023-11-21T12:33:52.237Z,2.63
2023-11-21T12:36:20.845Z,1.77
2023-11-21T12:38:49.338Z,2.33
2023-11-21T12:41:19.624Z,1.87
2023-11-21T12:43:49.673Z,2.00
2023-11-21T12:46:18.781Z,1.60
2023-11-21T12:48:47.978Z,2.47
2023-11-21T12:51:17.129Z,3.07
2023-11-21T12:53:45.811Z,2.07
2023-11-21T12:56:14.753Z,3.17
2023-11-21T12:58:48.275Z,1.70
2023-11-21T13:01:19.998Z,2.67
2023-11-21T13:03:52.527Z,1.97
2023-11-21T13:06:25.992Z,2.23
2023-11-21T13:08:55.177Z,4.53
2023-11-21T13:11:24.269Z,4.33
2023-11-21T13:13:55.497Z,3.83
2023-11-21T13:16:25.534Z,4.23
2023-11-21T13:18:54.096Z,4.53
2023-11-21T13:21:23.518Z,4.67
2023-11-21T13:23:54.461Z,3.40
2023-11-21T13:26:24.738Z,4.37
2023-11-21T13:28:54.798Z,2.03
2023-11-21T13:31:27.486Z,2.03
2023-11-21T13:34:00.309Z,2.40
2023-11-21T13:36:32.800Z,4.20
2023-11-21T13:39:08.724Z,2.20
2023-11-21T13:41:39.728Z,2.73
2023-11-21T13:44:17.363Z,5.17
2023-11-21T13:46:47.641Z,4.47
2023-11-21T13:49:17.932Z,3.73
2023-11-21T13:51:49.472Z,4.07
2023-11-21T13:54:21.171Z,3.07
2023-11-21T13:56:51.804Z,3.90
2023-11-21T13:59:24.504Z,3.53
2023-11-21T14:02:00.635Z,4.47
2023-11-21T14:04:48.343Z,4.23
2023-11-21T14:07:27.422Z,3.03
2023-11-21T14:09:56.154Z,4.17
2023-11-21T14:12:24.884Z,3.33
2023-11-21T14:14:53.822Z,3.67
2023-11-21T14:17:23.481Z,3.87
2023-11-21T14:19:54.083Z,2.93
2023-11-21T14:22:26.621Z,3.83
2023-11-21T14:24:57.143Z,3.53
2023-11-21T14:27:28.618Z,6.30
2023-11-21T14:29:58.694Z,4.33
2023-11-21T14:32:27.346Z,4.93
2023-11-21T14:34:57.277Z,4.07
2023-11-21T14:37:30.269Z,4.40
2023-11-21T14:39:58.874Z,3.30
2023-11-21T14:42:30.761Z,3.70
2023-11-21T14:45:04.270Z,4.13
2023-11-21T14:47:33.780Z,3.77
2023-11-21T14:50:24.874Z,5.13
2023-11-21T14:52:58.979Z,4.60
2023-11-21T14:55:33.227Z,3.73
2023-11-21T14:58:05.187Z,4.67
2023-11-21T15:00:46.476Z,5.53
2023-11-21T15:03:45.628Z,2.20
2023-11-21T15:06:27.510Z,1.83
2023-11-21T15:09:13.551Z,3.90
2023-11-21T15:11:42.930Z,3.57
2023-11-21T15:14:14.342Z,4.33
2023-11-21T15:16:47.778Z,3.43
2023-11-21T15:19:19.631Z,3.67
2023-11-21T15:21:49.616Z,3.47
2023-11-21T15:24:18.114Z,3.80
2023-11-21T15:26:46.579Z,2.80
2023-11-21T15:29:16.200Z,3.80
2023-11-21T15:31:49.864Z,1.93
2023-11-21T15:34:18.680Z,3.17
2023-11-21T15:36:54.699Z,4.60
2023-11-21T15:39:29.244Z,3.47
2023-11-21T15:41:57.699Z,2.90
2023-11-21T15:44:27.433Z,3.90
2023-11-21T15:46:56.249Z,2.93
2023-11-21T15:49:25.120Z,3.87
2023-11-21T15:51:56.723Z,2.73
2023-11-21T15:54:26.987Z,3.43
2023-11-21T15:57:00.565Z,2.30
2023-11-21T15:59:33.094Z,2.60
2023-11-21T16:02:01.944Z,2.23
2023-11-21T16:04:30.943Z,3.00
2023-11-21T16:07:00.671Z,2.93
2023-11-21T16:09:32.309Z,2.07
2023-11-21T16:12:03.930Z,2.03
2023-11-21T16:14:37.637Z,2.07
2023-11-21T16:17:08.214Z,2.53
2023-11-21T16:19:37.132Z,3.10
2023-11-21T16:22:05.683Z,2.47
2023-11-21T16:24:35.563Z,2.50
2023-11-21T16:27:05.504Z,2.50
2023-11-21T16:29:34.631Z,1.77
2023-11-21T16:32:03.736Z,2.37
2023-11-21T16:34:32.234Z,4.13
2023-11-21T16:37:00.779Z,2.93
2023-11-21T16:39:29.360Z,3.90
2023-11-21T16:42:02.284Z,2.47
2023-11-21T16:44:31.397Z,3.10
2023-11-21T16:47:06.107Z,2.63
2023-11-21T16:49:36.767Z,2.00
2023-11-21T16:52:08.388Z,3.27
2023-11-21T16:54:36.980Z,2.13
2023-11-21T16:57:07.174Z,1.90
2023-11-21T16:59:35.621Z,2.47
2023-11-21T17:02:04.122Z,2.17
2023-11-21T17:04:33.540Z,3.97
2023-11-21T17:07:01.940Z,1.90
2023-11-21T17:09:30.392Z,2.30
2023-11-21T17:11:59.646Z,2.53
2023-11-21T17:14:29.651Z,3.47
2023-11-21T17:16:58.114Z,3.23
2023-11-21T17:19:26.682Z,2.67
2023-11-21T17:21:55.141Z,3.30
2023-11-21T17:24:23.568Z,3.63
2023-11-21T17:26:52.010Z,2.57
2023-11-21T17:29:20.442Z,1.43
2023-11-21T17:31:50.246Z,1.77
2023-11-21T17:34:20.427Z,1.83
2023-11-21T17:36:49.151Z,3.77
2023-11-21T17:39:19.007Z,3.20
2023-11-21T17:41:47.602Z,1.87
2023-11-21T17:44:16.128Z,3.90
2023-11-21T17:46:44.821Z,2.50
2023-11-21T17:49:15.095Z,3.37
2023-11-21T17:51:43.770Z,2.07
2023-11-21T17:54:12.453Z,3.73
2023-11-21T17:56:40.936Z,3.07
2023-11-21T17:59:09.873Z,2.57
2023-11-21T18:01:39.309Z,1.80
2023-11-21T18:04:08.407Z,4.40
2023-11-21T18:06:39.887Z,2.93
2023-11-21T18:09:10.110Z,2.30
2023-11-21T18:11:39.703Z,2.67
2023-11-21T18:14:11.402Z,2.00
2023-11-21T18:16:42.913Z,2.90
2023-11-21T18:19:13.652Z,3.13
2023-11-21T18:21:43.776Z,2.10
2023-11-21T18:24:12.854Z,2.33
2023-11-21T18:26:41.308Z,1.83
2023-11-21T18:29:10.735Z,3.50
2023-11-21T18:31:42.287Z,2.70
2023-11-21T18:34:11.108Z,2.07
2023-11-21T18:36:39.660Z,2.97
2023-11-21T18:39:10.415Z,3.43
2023-11-21T18:41:38.899Z,2.43
2023-11-21T18:44:08.045Z,2.07
2023-11-21T18:46:39.012Z,2.60
2023-11-21T18:49:09.721Z,2.30
2023-11-21T18:51:38.381Z,2.50
2023-11-21T18:54:07.631Z,2.27
2023-11-21T18:56:41.929Z,2.80
2023-11-21T18:59:12.322Z,1.70
2023-11-21T19:01:43.108Z,1.63
2023-11-21T19:04:12.287Z,1.30
2023-11-21T19:06:47.994Z,2.47
2023-11-21T19:09:17.084Z,2.80
2023-11-21T19:11:48.704Z,2.63
2023-11-21T19:14:17.606Z,1.67
2023-11-21T19:16:47.201Z,1.67
2023-11-21T19:19:15.609Z,2.90
2023-11-21T19:21:44.088Z,2.20
2023-11-21T19:24:12.567Z,1.80
2023-11-21T19:26:41.212Z,3.07
2023-11-21T19:29:10.969Z,1.43
2023-11-21T19:31:39.738Z,1.40
2023-11-21T19:34:08.449Z,1.63
2023-11-21T19:36:42.588Z,2.80
2023-11-21T19:39:11.077Z,2.87
2023-11-21T19:41:42.129Z,2.50
2023-11-21T19:44:12.056Z,2.63
2023-11-21T19:46:40.837Z,2.23
2023-11-21T19:49:10.997Z,2.13
2023-11-21T19:51:39.583Z,2.17
2023-11-21T19:54:09.975Z,1.40
2023-11-21T19:56:41.420Z,2.70
2023-11-21T19:59:14.935Z,2.73
2023-11-21T20:01:45.165Z,1.67
2023-11-21T20:04:14.035Z,1.93
2023-11-21T20:06:48.598Z,3.43
2023-11-21T20:09:23.371Z,1.63
2023-11-21T20:11:52.454Z,3.87
2023-11-21T20:14:21.475Z,1.73
2023-11-21T20:16:51.325Z,2.00
2023-11-21T20:19:19.782Z,1.83
2023-11-21T20:21:50.742Z,1.63
2023-11-21T20:24:19.529Z,1.07
2023-11-21T20:26:48.330Z,1.47
2023-11-21T20:29:18.521Z,1.50
2023-11-21T20:31:47.081Z,1.57
2023-11-21T20:34:17.392Z,2.07
2023-11-21T20:36:49.974Z,1.63
2023-11-21T20:39:27.337Z,1.80
2023-11-21T20:41:56.265Z,1.60
2023-11-21T20:44:24.923Z,3.00
2023-11-21T20:47:01.060Z,1.70
2023-11-21T20:49:41.941Z,3.10
2023-11-21T20:52:16.663Z,2.37
2023-11-21T20:54:48.133Z,1.60
2023-11-21T20:57:17.948Z,2.13
2023-11-21T20:59:46.590Z,1.60
2023-11-21T21:02:15.252Z,1.60
2023-11-21T21:04:45.612Z,2.77
2023-11-21T21:07:14.817Z,2.43
2023-11-21T21:09:43.820Z,1.87
2023-11-21T21:12:12.830Z,1.50
2023-11-21T21:14:41.274Z,1.90
2023-11-21T21:17:10.173Z,1.20
2023-11-21T21:19:43.545Z,1.47
2023-11-21T21:22:13.468Z,2.50
2023-11-21T21:24:45.612Z,1.60
2023-11-21T21:27:14.081Z,0.90
2023-11-21T21:29:42.707Z,1.70
2023-11-21T21:32:11.223Z,1.53
2023-11-21T21:34:40.404Z,0.93
2023-11-21T21:37:08.983Z,1.97
2023-11-21T21:39:41.230Z,0.90
2023-11-21T21:42:10.042Z,1.60
2023-11-21T21:44:41.709Z,1.53
2023-11-21T21:47:12.608Z,1.87
2023-11-21T21:49:41.105Z,2.17
2023-11-21T21:52:09.558Z,1.57
2023-11-21T21:54:41.696Z,1.97
2023-11-21T21:57:10.221Z,1.03
2023-11-21T21:59:39.356Z,0.93
2023-11-21T22:02:08.876Z,1.63
2023-11-21T22:04:36.411Z,0.60
2023-11-21T22:07:05.082Z,0.70
2023-11-21T22:09:34.531Z,0.70
2023-11-21T22:12:07.002Z,0.60
2023-11-21T22:14:35.452Z,1.47
2023-11-21T22:17:03.997Z,0.70
2023-11-21T22:19:32.513Z,0.70
2023-11-21T22:22:00.968Z,0.90
2023-11-21T22:24:29.632Z,0.60
2023-11-21T22:26:58.646Z,0.93
2023-11-21T22:29:28.435Z,0.60
2023-11-21T22:31:57.162Z,1.17
2023-11-21T22:34:25.939Z,1.13
2023-11-21T22:36:54.767Z,0.80
2023-11-21T22:39:24.200Z,1.27
2023-11-21T22:41:54.547Z,1.73
2023-11-21T22:44:23.122Z,0.90
2023-11-21T22:46:53.998Z,2.00
2023-11-21T22:49:23.124Z,1.53
2023-11-21T22:51:52.299Z,1.83
2023-11-21T22:54:21.297Z,1.93
2023-11-21T22:56:52.029Z,1.53
2023-11-21T22:59:20.714Z,2.30
2023-11-21T23:01:49.971Z,0.70
2023-11-21T23:04:20.384Z,0.90
2023-11-21T23:06:49.177Z,1.70
2023-11-21T23:09:18.318Z,0.90
2023-11-21T23:11:47.228Z,0.70
2023-11-21T23:14:16.207Z,0.70
2023-11-21T23:16:44.887Z,1.77
2023-11-21T23:19:16.400Z,0.70
2023-11-21T23:21:46.728Z,0.90
2023-11-21T23:24:20.528Z,2.97
2023-11-21T23:26:49.878Z,3.20
2023-11-21T23:29:23.807Z,0.70
2023-11-21T23:31:53.053Z,1.00
2023-11-21T23:34:21.512Z,2.10
2023-11-21T23:36:51.400Z,2.83
2023-11-21T23:39:19.821Z,2.43
2023-11-21T23:41:48.599Z,1.20
2023-11-21T23:44:17.685Z,1.53
2023-11-21T23:46:46.723Z,0.70
2023-11-21T23:49:15.374Z,2.23
2023-11-21T23:51:43.853Z,1.00
2023-11-21T23:54:14.173Z,1.27
2023-11-21T23:56:43.438Z,1.73
2023-11-21T23:59:11.906Z,2.43
